Rochester, MA

1:38 AM EDT on April 26, 2015 (GMT -0400)
Taunton Municipal | | Change Station
CLOSE
Current Station
Airport
Location: Taunton,
Elevation: 43 ft
Nearby Weather Stations

Elev 43 ft 41.88 °N, 71.02 °W | Updated 46 minutes ago

Mostly Cloudy
Mostly Cloudy
44 °F
Feels Like 42 °F
N
5
Wind Variable Wind from NE

Today
High -- | Low -- °F
--% Chance of Precip.
Yesterday
High -- | Low -- °F
Precip. -- in
5:47 AM 7:35 PM
First Quarter, 52% visible
Pressure 29.71 in
Visibility 10.0 miles
Clouds Scattered Clouds 8000 ft
Windchill 42 °F
Dew Point 31 °F
Humidity 60%
Rainfall 0.00 in
Snow Depth Not available.
UV 0 out of 12
Pollen 10.90 out of 12
Air Quality Not available.
Flu Activity Widespread
METAR KTAN 260452Z AUTO 04004KT 10SM SCT080 07/M01 A2971 RMK AO2 SLP061 T00671006 401560006

More Conditions Fewer Conditions

Pressure 29.71 in
Visibility 10.0 miles
Clouds Scattered Clouds 8000 ft
Windchill 42 °F
Dew Point 31 °F
Humidity 60%
Rainfall 0.00 in
Snow Depth Not available.
UV 0 out of 12
Pollen 10.90 out of 12
Air Quality Not available.
Flu Activity Widespread
METAR KTAN 260452Z AUTO 04004KT 10SM SCT080 07/M01 A2971 RMK AO2 SLP061 T00671006 401560006

More Conditions Fewer Conditions

The full scope of the disaster following a powerful 7.8-magnitude earthquake in Nepal may not come into view for days, but global charities are already sending emergency aid. Click to see how you can help.

10-Day Weather Forecast

Almanac

Astronomy

Apr. 26, 2015 Rise Set
Actual Time
Civil Twilight
Nautical Twilight
Astronomical Twilight
Moon
Length of Visible Light
Length of Day
Tomorrow will be .
, % of the Moon is Illuminated

Today's Extremes

State Highs State Lows

Community

WunderPhotos

Upload Photos

1,816,946 photos uploaded!

WunderBlogs® & News

Nearby

Air Quality

  Air Quality AQ Index Pollutant
Not available.

Snow Depth

Station Depth Elevation

Earthquake Activity

City Distance Mag. Time & Date
Minimum magnitude displayed is 2.5.

Coastal Water Temperatures

Place Temperature

Stations

Nearby Weather Stations

Station Location Temp. Windchill Dew Point Humidity Wind Precip. Elev Updated Type